sensor_id;sensor_type;location;lat;lon;timestamp;temperature;humidity
20973;DHT22;10645;52.370;13.314;2023-08-31T00:00:24;13.90;99.90
20973;DHT22;10645;52.370;13.314;2023-08-31T00:02:51;13.90;99.90
20973;DHT22;10645;52.370;13.314;2023-08-31T00:05:17;13.90;99.90
20973;DHT22;10645;52.370;13.314;2023-08-31T00:07:43;14.00;99.90
20973;DHT22;10645;52.370;13.314;2023-08-31T00:10:09;14.10;99.90
20973;DHT22;10645;52.370;13.314;2023-08-31T00:12:37;14.00;99.90
20973;DHT22;10645;52.370;13.314;2023-08-31T00:15:04;14.10;99.90
20973;DHT22;10645;52.370;13.314;2023-08-31T00:17:30;14.10;99.90
20973;DHT22;10645;52.370;13.314;2023-08-31T00:19:56;14.10;99.90
20973;DHT22;10645;52.370;13.314;2023-08-31T00:22:22;14.10;99.90
20973;DHT22;10645;52.370;13.314;2023-08-31T00:24:49;14.10;99.90
20973;DHT22;10645;52.370;13.314;2023-08-31T00:27:17;14.10;99.90
20973;DHT22;10645;52.370;13.314;2023-08-31T00:29:43;14.10;99.90
20973;DHT22;10645;52.370;13.314;2023-08-31T00:32:15;14.00;99.90
20973;DHT22;10645;52.370;13.314;2023-08-31T00:34:41;14.00;99.90
20973;DHT22;10645;52.370;13.314;2023-08-31T00:37:08;14.00;99.90
20973;DHT22;10645;52.370;13.314;2023-08-31T00:39:34;14.00;99.90
20973;DHT22;10645;52.370;13.314;2023-08-31T00:42:01;14.00;99.90
20973;DHT22;10645;52.370;13.314;2023-08-31T00:44:27;14.00;99.90
20973;DHT22;10645;52.370;13.314;2023-08-31T00:46:54;14.00;99.90
20973;DHT22;10645;52.370;13.314;2023-08-31T00:49:20;13.90;99.90
20973;DHT22;10645;52.370;13.314;2023-08-31T00:51:47;13.90;99.90
20973;DHT22;10645;52.370;13.314;2023-08-31T00:54:19;13.80;99.90
20973;DHT22;10645;52.370;13.314;2023-08-31T00:56:52;13.80;99.90
20973;DHT22;10645;52.370;13.314;2023-08-31T00:59:18;13.80;99.90
20973;DHT22;10645;52.370;13.314;2023-08-31T01:01:51;13.80;99.90
20973;DHT22;10645;52.370;13.314;2023-08-31T01:04:38;13.80;99.90
20973;DHT22;10645;52.370;13.314;2023-08-31T01:12:46;13.90;99.90
20973;DHT22;10645;52.370;13.314;2023-08-31T01:15:14;13.90;99.90
20973;DHT22;10645;52.370;13.314;2023-08-31T01:17:50;14.00;99.90
20973;DHT22;10645;52.370;13.314;2023-08-31T01:20:26;14.00;99.90
20973;DHT22;10645;52.370;13.314;2023-08-31T01:23:06;14.10;99.90
20973;DHT22;10645;52.370;13.314;2023-08-31T01:25:36;14.20;99.90
20973;DHT22;10645;52.370;13.314;2023-08-31T01:28:03;14.20;99.90
20973;DHT22;10645;52.370;13.314;2023-08-31T01:30:30;14.20;99.90
20973;DHT22;10645;52.370;13.314;2023-08-31T01:32:57;14.20;99.90
20973;DHT22;10645;52.370;13.314;2023-08-31T01:35:23;14.20;99.90
20973;DHT22;10645;52.370;13.314;2023-08-31T01:37:56;14.20;99.90
20973;DHT22;10645;52.370;13.314;2023-08-31T01:40:46;14.20;99.90
20973;DHT22;10645;52.370;13.314;2023-08-31T01:43:17;14.20;99.90
20973;DHT22;10645;52.370;13.314;2023-08-31T01:45:45;14.10;99.90
20973;DHT22;10645;52.370;13.314;2023-08-31T01:48:13;14.10;99.90
20973;DHT22;10645;52.370;13.314;2023-08-31T01:50:39;14.10;99.90
20973;DHT22;10645;52.370;13.314;2023-08-31T01:53:05;14.10;99.90
20973;DHT22;10645;52.370;13.314;2023-08-31T01:55:33;14.00;99.90
20973;DHT22;10645;52.370;13.314;2023-08-31T01:57:59;14.00;99.90
20973;DHT22;10645;52.370;13.314;2023-08-31T02:00:27;14.00;99.90
20973;DHT22;10645;52.370;13.314;2023-08-31T02:02:55;14.00;99.90
20973;DHT22;10645;52.370;13.314;2023-08-31T02:05:21;13.90;99.90
20973;DHT22;10645;52.370;13.314;2023-08-31T02:07:47;13.90;99.90
20973;DHT22;10645;52.370;13.314;2023-08-31T02:10:13;13.90;99.90
20973;DHT22;10645;52.370;13.314;2023-08-31T02:12:42;13.80;99.90
20973;DHT22;10645;52.370;13.314;2023-08-31T02:15:09;13.80;99.90
20973;DHT22;10645;52.370;13.314;2023-08-31T02:17:36;13.80;99.90
20973;DHT22;10645;52.370;13.314;2023-08-31T02:20:03;13.80;99.90
20973;DHT22;10645;52.370;13.314;2023-08-31T02:22:31;13.70;99.90
20973;DHT22;10645;52.370;13.314;2023-08-31T02:24:59;13.70;99.90
20973;DHT22;10645;52.370;13.314;2023-08-31T02:27:27;13.70;99.90
20973;DHT22;10645;52.370;13.314;2023-08-31T02:29:53;13.70;99.90
20973;DHT22;10645;52.370;13.314;2023-08-31T02:32:19;13.60;99.90
20973;DHT22;10645;52.370;13.314;2023-08-31T02:34:45;13.60;99.90
20973;DHT22;10645;52.370;13.314;2023-08-31T02:37:12;13.50;99.90
20973;DHT22;10645;52.370;13.314;2023-08-31T02:39:38;13.50;99.90
20973;DHT22;10645;52.370;13.314;2023-08-31T02:42:04;13.50;99.90
20973;DHT22;10645;52.370;13.314;2023-08-31T02:44:31;13.50;99.90
20973;DHT22;10645;52.370;13.314;2023-08-31T02:46:57;13.50;99.90
20973;DHT22;10645;52.370;13.314;2023-08-31T02:49:23;13.40;99.90
20973;DHT22;10645;52.370;13.314;2023-08-31T02:51:49;13.40;99.90
20973;DHT22;10645;52.370;13.314;2023-08-31T02:54:16;13.40;99.90
20973;DHT22;10645;52.370;13.314;2023-08-31T02:56:42;13.40;99.90
20973;DHT22;10645;52.370;13.314;2023-08-31T02:59:08;13.30;99.90
20973;DHT22;10645;52.370;13.314;2023-08-31T03:01:34;13.30;99.90
20973;DHT22;10645;52.370;13.314;2023-08-31T03:04:01;13.40;99.90
20973;DHT22;10645;52.370;13.314;2023-08-31T03:06:27;13.40;99.90
20973;DHT22;10645;52.370;13.314;2023-08-31T03:08:53;13.40;99.90
20973;DHT22;10645;52.370;13.314;2023-08-31T03:11:19;13.40;99.90
20973;DHT22;10645;52.370;13.314;2023-08-31T03:13:45;13.40;99.90
20973;DHT22;10645;52.370;13.314;2023-08-31T03:16:12;13.40;99.90
20973;DHT22;10645;52.370;13.314;2023-08-31T03:18:38;13.40;99.90
20973;DHT22;10645;52.370;13.314;2023-08-31T03:21:04;13.50;99.90
20973;DHT22;10645;52.370;13.314;2023-08-31T03:23:30;13.40;99.90
20973;DHT22;10645;52.370;13.314;2023-08-31T03:25:57;13.50;99.90
20973;DHT22;10645;52.370;13.314;2023-08-31T03:28:26;13.40;99.90
20973;DHT22;10645;52.370;13.314;2023-08-31T03:30:58;13.40;99.90
20973;DHT22;10645;52.370;13.314;2023-08-31T03:33:24;13.50;99.90
20973;DHT22;10645;52.370;13.314;2023-08-31T03:35:50;13.40;99.90
20973;DHT22;10645;52.370;13.314;2023-08-31T03:38:17;13.40;99.90
20973;DHT22;10645;52.370;13.314;2023-08-31T03:40:55;13.40;99.90
20973;DHT22;10645;52.370;13.314;2023-08-31T03:43:21;13.40;99.90
20973;DHT22;10645;52.370;13.314;2023-08-31T03:45:47;13.40;99.90
20973;DHT22;10645;52.370;13.314;2023-08-31T03:48:13;13.40;99.90
20973;DHT22;10645;52.370;13.314;2023-08-31T03:50:40;13.40;99.90
20973;DHT22;10645;52.370;13.314;2023-08-31T03:53:06;13.40;99.90
20973;DHT22;10645;52.370;13.314;2023-08-31T03:55:32;13.40;99.90
20973;DHT22;10645;52.370;13.314;2023-08-31T03:57:59;13.40;99.90
20973;DHT22;10645;52.370;13.314;2023-08-31T04:00:25;13.40;99.90
20973;DHT22;10645;52.370;13.314;2023-08-31T04:02:54;13.40;99.90
20973;DHT22;10645;52.370;13.314;2023-08-31T04:05:22;13.40;99.90
20973;DHT22;10645;52.370;13.314;2023-08-31T04:07:48;13.40;99.90
20973;DHT22;10645;52.370;13.314;2023-08-31T04:10:14;13.40;99.90
20973;DHT22;10645;52.370;13.314;2023-08-31T04:12:40;13.40;99.90
20973;DHT22;10645;52.370;13.314;2023-08-31T04:15:09;13.40;99.90
20973;DHT22;10645;52.370;13.314;2023-08-31T04:17:35;13.30;99.90
20973;DHT22;10645;52.370;13.314;2023-08-31T04:20:02;13.30;99.90
20973;DHT22;10645;52.370;13.314;2023-08-31T04:22:31;13.30;99.90
20973;DHT22;10645;52.370;13.314;2023-08-31T04:24:57;13.30;99.90
20973;DHT22;10645;52.370;13.314;2023-08-31T04:27:23;13.30;99.90
20973;DHT22;10645;52.370;13.314;2023-08-31T04:29:49;13.30;99.90
20973;DHT22;10645;52.370;13.314;2023-08-31T04:32:15;13.30;99.90
20973;DHT22;10645;52.370;13.314;2023-08-31T04:34:41;13.20;99.90
20973;DHT22;10645;52.370;13.314;2023-08-31T04:37:07;13.30;99.90
20973;DHT22;10645;52.370;13.314;2023-08-31T04:39:34;13.30;99.90
20973;DHT22;10645;52.370;13.314;2023-08-31T04:42:00;13.30;99.90
20973;DHT22;10645;52.370;13.314;2023-08-31T04:44:26;13.30;99.90
20973;DHT22;10645;52.370;13.314;2023-08-31T04:46:52;13.30;99.90
20973;DHT22;10645;52.370;13.314;2023-08-31T04:49:18;13.30;99.90
20973;DHT22;10645;52.370;13.314;2023-08-31T04:51:44;13.30;99.90
20973;DHT22;10645;52.370;13.314;2023-08-31T04:54:10;13.30;99.90
20973;DHT22;10645;52.370;13.314;2023-08-31T04:56:36;13.30;99.90
20973;DHT22;10645;52.370;13.314;2023-08-31T04:59:03;13.40;99.90
20973;DHT22;10645;52.370;13.314;2023-08-31T05:01:29;13.40;99.90
20973;DHT22;10645;52.370;13.314;2023-08-31T05:03:55;13.40;99.90
20973;DHT22;10645;52.370;13.314;2023-08-31T05:06:21;13.40;99.90
20973;DHT22;10645;52.370;13.314;2023-08-31T05:08:48;13.40;99.90
20973;DHT22;10645;52.370;13.314;2023-08-31T05:11:14;13.40;99.90
20973;DHT22;10645;52.370;13.314;2023-08-31T05:13:40;13.40;99.90
20973;DHT22;10645;52.370;13.314;2023-08-31T05:16:08;13.50;99.90
20973;DHT22;10645;52.370;13.314;2023-08-31T05:18:34;13.50;99.90
20973;DHT22;10645;52.370;13.314;2023-08-31T05:21:02;13.50;99.90
20973;DHT22;10645;52.370;13.314;2023-08-31T05:23:29;13.50;99.90
20973;DHT22;10645;52.370;13.314;2023-08-31T05:25:56;13.50;99.90
20973;DHT22;10645;52.370;13.314;2023-08-31T05:28:24;13.50;99.90
20973;DHT22;10645;52.370;13.314;2023-08-31T05:30:52;13.60;99.90
20973;DHT22;10645;52.370;13.314;2023-08-31T05:33:19;13.60;99.90
20973;DHT22;10645;52.370;13.314;2023-08-31T05:35:45;13.60;99.90
20973;DHT22;10645;52.370;13.314;2023-08-31T05:38:11;13.70;99.90
20973;DHT22;10645;52.370;13.314;2023-08-31T05:40:38;13.70;99.90
20973;DHT22;10645;52.370;13.314;2023-08-31T05:43:04;13.70;99.90
20973;DHT22;10645;52.370;13.314;2023-08-31T05:45:33;13.80;99.90
20973;DHT22;10645;52.370;13.314;2023-08-31T05:48:00;13.80;99.90
20973;DHT22;10645;52.370;13.314;2023-08-31T05:50:27;13.70;99.90
20973;DHT22;10645;52.370;13.314;2023-08-31T05:52:54;13.80;99.90
20973;DHT22;10645;52.370;13.314;2023-08-31T05:55:20;13.80;99.90
20973;DHT22;10645;52.370;13.314;2023-08-31T05:57:46;13.80;99.90
20973;DHT22;10645;52.370;13.314;2023-08-31T06:00:13;13.80;99.90
20973;DHT22;10645;52.370;13.314;2023-08-31T06:02:39;13.90;99.90
20973;DHT22;10645;52.370;13.314;2023-08-31T06:05:05;13.90;99.90
20973;DHT22;10645;52.370;13.314;2023-08-31T06:07:32;13.90;99.90
20973;DHT22;10645;52.370;13.314;2023-08-31T06:09:58;14.10;99.90
20973;DHT22;10645;52.370;13.314;2023-08-31T06:12:24;14.10;99.90
20973;DHT22;10645;52.370;13.314;2023-08-31T06:14:50;14.20;99.90
20973;DHT22;10645;52.370;13.314;2023-08-31T06:17:16;14.40;99.90
20973;DHT22;10645;52.370;13.314;2023-08-31T06:19:42;14.50;99.90
20973;DHT22;10645;52.370;13.314;2023-08-31T06:22:09;14.60;99.90
20973;DHT22;10645;52.370;13.314;2023-08-31T06:24:35;14.60;99.90
20973;DHT22;10645;52.370;13.314;2023-08-31T06:27:02;14.70;99.90
20973;DHT22;10645;52.370;13.314;2023-08-31T06:29:28;14.80;99.90
20973;DHT22;10645;52.370;13.314;2023-08-31T06:31:54;14.80;99.90
20973;DHT22;10645;52.370;13.314;2023-08-31T06:34:20;14.70;99.90
20973;DHT22;10645;52.370;13.314;2023-08-31T06:36:46;14.60;99.90
20973;DHT22;10645;52.370;13.314;2023-08-31T06:39:12;14.60;99.90
20973;DHT22;10645;52.370;13.314;2023-08-31T06:41:38;14.50;99.90
20973;DHT22;10645;52.370;13.314;2023-08-31T06:44:05;14.50;99.90
20973;DHT22;10645;52.370;13.314;2023-08-31T06:46:31;14.40;99.90
20973;DHT22;10645;52.370;13.314;2023-08-31T06:49:04;14.30;99.90
20973;DHT22;10645;52.370;13.314;2023-08-31T06:51:32;14.30;99.90
20973;DHT22;10645;52.370;13.314;2023-08-31T06:53:58;14.20;99.90
20973;DHT22;10645;52.370;13.314;2023-08-31T06:56:36;14.20;99.90
20973;DHT22;10645;52.370;13.314;2023-08-31T06:59:02;14.10;99.90
20973;DHT22;10645;52.370;13.314;2023-08-31T07:01:29;14.00;99.90
20973;DHT22;10645;52.370;13.314;2023-08-31T07:03:55;14.00;99.90
20973;DHT22;10645;52.370;13.314;2023-08-31T07:06:22;14.00;99.90
20973;DHT22;10645;52.370;13.314;2023-08-31T07:08:48;14.00;99.90
20973;DHT22;10645;52.370;13.314;2023-08-31T07:11:15;14.00;99.90
20973;DHT22;10645;52.370;13.314;2023-08-31T07:13:41;14.10;99.90
20973;DHT22;10645;52.370;13.314;2023-08-31T07:16:07;14.20;99.90
20973;DHT22;10645;52.370;13.314;2023-08-31T07:18:35;14.30;99.90
20973;DHT22;10645;52.370;13.314;2023-08-31T07:21:01;14.40;99.90
20973;DHT22;10645;52.370;13.314;2023-08-31T07:23:27;14.60;99.90
20973;DHT22;10645;52.370;13.314;2023-08-31T07:25:56;14.70;99.90
20973;DHT22;10645;52.370;13.314;2023-08-31T07:28:24;14.80;99.90
20973;DHT22;10645;52.370;13.314;2023-08-31T07:31:03;14.90;99.90
20973;DHT22;10645;52.370;13.314;2023-08-31T07:33:31;15.10;99.90
20973;DHT22;10645;52.370;13.314;2023-08-31T07:35:58;15.10;99.90
20973;DHT22;10645;52.370;13.314;2023-08-31T07:38:25;15.00;99.90
20973;DHT22;10645;52.370;13.314;2023-08-31T07:40:52;15.00;99.90
20973;DHT22;10645;52.370;13.314;2023-08-31T07:43:18;14.90;99.90
20973;DHT22;10645;52.370;13.314;2023-08-31T07:45:44;14.90;99.90
20973;DHT22;10645;52.370;13.314;2023-08-31T07:48:10;14.80;99.90
20973;DHT22;10645;52.370;13.314;2023-08-31T07:50:36;14.70;99.90
20973;DHT22;10645;52.370;13.314;2023-08-31T07:53:02;14.70;99.90
20973;DHT22;10645;52.370;13.314;2023-08-31T07:55:29;14.70;99.90
20973;DHT22;10645;52.370;13.314;2023-08-31T07:57:55;14.90;99.90
20973;DHT22;10645;52.370;13.314;2023-08-31T08:00:21;15.10;99.90
20973;DHT22;10645;52.370;13.314;2023-08-31T08:02:47;15.30;99.90
20973;DHT22;10645;52.370;13.314;2023-08-31T08:05:13;15.50;99.90
20973;DHT22;10645;52.370;13.314;2023-08-31T08:07:40;15.80;99.90
20973;DHT22;10645;52.370;13.314;2023-08-31T08:10:09;16.20;99.90
20973;DHT22;10645;52.370;13.314;2023-08-31T08:12:38;16.40;99.90
20973;DHT22;10645;52.370;13.314;2023-08-31T08:15:06;16.50;99.90
20973;DHT22;10645;52.370;13.314;2023-08-31T08:17:34;16.40;99.90
20973;DHT22;10645;52.370;13.314;2023-08-31T08:20:00;16.50;99.90
20973;DHT22;10645;52.370;13.314;2023-08-31T08:22:26;16.50;99.90
20973;DHT22;10645;52.370;13.314;2023-08-31T08:24:52;16.60;99.90
20973;DHT22;10645;52.370;13.314;2023-08-31T08:27:18;16.80;99.90
20973;DHT22;10645;52.370;13.314;2023-08-31T08:29:45;17.10;99.90
20973;DHT22;10645;52.370;13.314;2023-08-31T08:32:11;17.40;99.90
20973;DHT22;10645;52.370;13.314;2023-08-31T08:34:37;17.60;99.90
20973;DHT22;10645;52.370;13.314;2023-08-31T08:37:03;17.80;99.90
20973;DHT22;10645;52.370;13.314;2023-08-31T08:39:30;17.90;99.90
20973;DHT22;10645;52.370;13.314;2023-08-31T08:41:58;17.80;99.90
20973;DHT22;10645;52.370;13.314;2023-08-31T08:44:33;17.70;99.90
20973;DHT22;10645;52.370;13.314;2023-08-31T08:47:00;17.60;99.90
20973;DHT22;10645;52.370;13.314;2023-08-31T08:49:27;17.10;99.90
20973;DHT22;10645;52.370;13.314;2023-08-31T08:51:54;17.10;99.90
20973;DHT22;10645;52.370;13.314;2023-08-31T08:54:21;17.40;99.90
20973;DHT22;10645;52.370;13.314;2023-08-31T08:56:48;17.50;99.90
20973;DHT22;10645;52.370;13.314;2023-08-31T08:59:14;17.60;99.90
20973;DHT22;10645;52.370;13.314;2023-08-31T09:01:40;17.50;99.90
20973;DHT22;10645;52.370;13.314;2023-08-31T09:04:06;17.70;99.90
20973;DHT22;10645;52.370;13.314;2023-08-31T09:06:33;17.50;99.90
20973;DHT22;10645;52.370;13.314;2023-08-31T09:08:59;17.20;99.90
20973;DHT22;10645;52.370;13.314;2023-08-31T09:11:25;17.00;99.90
20973;DHT22;10645;52.370;13.314;2023-08-31T09:13:52;16.80;99.90
20973;DHT22;10645;52.370;13.314;2023-08-31T09:16:25;17.10;99.90
20973;DHT22;10645;52.370;13.314;2023-08-31T09:18:55;17.40;99.90
20973;DHT22;10645;52.370;13.314;2023-08-31T09:21:22;18.00;99.90
20973;DHT22;10645;52.370;13.314;2023-08-31T09:23:57;18.40;99.90
20973;DHT22;10645;52.370;13.314;2023-08-31T09:26:24;18.90;99.90
20973;DHT22;10645;52.370;13.314;2023-08-31T09:28:50;19.20;99.90
20973;DHT22;10645;52.370;13.314;2023-08-31T09:31:17;19.40;99.90
20973;DHT22;10645;52.370;13.314;2023-08-31T09:33:51;19.60;99.90
20973;DHT22;10645;52.370;13.314;2023-08-31T09:36:19;19.30;99.90
20973;DHT22;10645;52.370;13.314;2023-08-31T09:38:46;19.10;99.90
20973;DHT22;10645;52.370;13.314;2023-08-31T09:41:12;18.70;99.90
20973;DHT22;10645;52.370;13.314;2023-08-31T09:43:39;18.40;99.90
20973;DHT22;10645;52.370;13.314;2023-08-31T09:46:05;18.10;99.90
20973;DHT22;10645;52.370;13.314;2023-08-31T09:48:31;18.10;99.90
20973;DHT22;10645;52.370;13.314;2023-08-31T09:50:58;18.30;99.90
20973;DHT22;10645;52.370;13.314;2023-08-31T09:53:29;18.70;99.90
20973;DHT22;10645;52.370;13.314;2023-08-31T09:55:56;18.90;99.90
20973;DHT22;10645;52.370;13.314;2023-08-31T09:58:23;19.40;99.90
20973;DHT22;10645;52.370;13.314;2023-08-31T10:00:50;19.60;99.90
20973;DHT22;10645;52.370;13.314;2023-08-31T10:03:17;19.60;99.90
20973;DHT22;10645;52.370;13.314;2023-08-31T10:05:44;19.60;99.90
20973;DHT22;10645;52.370;13.314;2023-08-31T10:08:11;19.90;99.90
20973;DHT22;10645;52.370;13.314;2023-08-31T10:10:37;20.10;99.90
20973;DHT22;10645;52.370;13.314;2023-08-31T10:13:05;19.60;99.90
20973;DHT22;10645;52.370;13.314;2023-08-31T10:15:32;19.10;99.90
20973;DHT22;10645;52.370;13.314;2023-08-31T10:18:02;18.80;99.90
20973;DHT22;10645;52.370;13.314;2023-08-31T10:20:30;18.70;99.90
20973;DHT22;10645;52.370;13.314;2023-08-31T10:22:58;18.70;99.90
20973;DHT22;10645;52.370;13.314;2023-08-31T10:25:24;18.50;99.90
20973;DHT22;10645;52.370;13.314;2023-08-31T10:27:52;18.50;99.90
20973;DHT22;10645;52.370;13.314;2023-08-31T10:35:51;17.60;99.90
20973;DHT22;10645;52.370;13.314;2023-08-31T10:38:27;16.40;99.90
20973;DHT22;10645;52.370;13.314;2023-08-31T10:43:44;14.60;99.90
20973;DHT22;10645;52.370;13.314;2023-08-31T10:51:31;14.30;99.90
20973;DHT22;10645;52.370;13.314;2023-08-31T10:54:19;14.40;99.90
20973;DHT22;10645;52.370;13.314;2023-08-31T10:56:55;14.70;99.90
20973;DHT22;10645;52.370;13.314;2023-08-31T10:59:44;15.00;99.90
20973;DHT22;10645;52.370;13.314;2023-08-31T11:02:11;15.40;99.90
20973;DHT22;10645;52.370;13.314;2023-08-31T11:05:01;16.00;99.90
20973;DHT22;10645;52.370;13.314;2023-08-31T11:07:30;16.80;99.90
20973;DHT22;10645;52.370;13.314;2023-08-31T11:12:33;17.30;99.90
20973;DHT22;10645;52.370;13.314;2023-08-31T11:14:59;17.10;99.90
20973;DHT22;10645;52.370;13.314;2023-08-31T11:17:25;16.90;99.90
20973;DHT22;10645;52.370;13.314;2023-08-31T11:19:51;16.60;99.90
20973;DHT22;10645;52.370;13.314;2023-08-31T11:22:18;16.60;99.90
20973;DHT22;10645;52.370;13.314;2023-08-31T11:24:44;16.70;99.90
20973;DHT22;10645;52.370;13.314;2023-08-31T11:27:10;17.00;99.90
20973;DHT22;10645;52.370;13.314;2023-08-31T11:29:37;17.00;99.90
20973;DHT22;10645;52.370;13.314;2023-08-31T11:32:04;16.90;99.90
20973;DHT22;10645;52.370;13.314;2023-08-31T11:34:30;17.00;99.90
20973;DHT22;10645;52.370;13.314;2023-08-31T11:36:56;17.40;99.90
20973;DHT22;10645;52.370;13.314;2023-08-31T11:39:22;17.90;99.90
20973;DHT22;10645;52.370;13.314;2023-08-31T11:41:49;18.50;99.90
20973;DHT22;10645;52.370;13.314;2023-08-31T11:44:16;19.10;99.90
20973;DHT22;10645;52.370;13.314;2023-08-31T11:46:45;19.40;99.90
20973;DHT22;10645;52.370;13.314;2023-08-31T11:49:14;19.50;99.90
20973;DHT22;10645;52.370;13.314;2023-08-31T11:51:41;19.50;99.90
20973;DHT22;10645;52.370;13.314;2023-08-31T11:54:07;19.50;99.90
20973;DHT22;10645;52.370;13.314;2023-08-31T11:56:46;19.90;99.90
20973;DHT22;10645;52.370;13.314;2023-08-31T11:59:20;20.20;99.90
20973;DHT22;10645;52.370;13.314;2023-08-31T12:01:48;20.30;99.90
20973;DHT22;10645;52.370;13.314;2023-08-31T12:04:20;20.20;99.90
20973;DHT22;10645;52.370;13.314;2023-08-31T12:06:52;20.20;99.90
20973;DHT22;10645;52.370;13.314;2023-08-31T12:09:21;20.10;99.90
20973;DHT22;10645;52.370;13.314;2023-08-31T12:11:50;19.80;99.90
20973;DHT22;10645;52.370;13.314;2023-08-31T12:14:24;19.60;99.90
20973;DHT22;10645;52.370;13.314;2023-08-31T12:16:52;19.40;99.90
20973;DHT22;10645;52.370;13.314;2023-08-31T12:19:18;19.10;99.90
20973;DHT22;10645;52.370;13.314;2023-08-31T12:21:46;19.00;99.90
20973;DHT22;10645;52.370;13.314;2023-08-31T12:24:12;18.90;99.90
20973;DHT22;10645;52.370;13.314;2023-08-31T12:26:40;18.80;99.90
20973;DHT22;10645;52.370;13.314;2023-08-31T12:29:06;18.70;99.90
20973;DHT22;10645;52.370;13.314;2023-08-31T12:31:33;18.60;99.90
20973;DHT22;10645;52.370;13.314;2023-08-31T12:33:59;18.40;99.90
20973;DHT22;10645;52.370;13.314;2023-08-31T12:36:26;18.10;99.90
20973;DHT22;10645;52.370;13.314;2023-08-31T12:38:52;17.80;99.90
20973;DHT22;10645;52.370;13.314;2023-08-31T12:41:18;17.70;99.90
20973;DHT22;10645;52.370;13.314;2023-08-31T12:43:46;17.50;99.90
20973;DHT22;10645;52.370;13.314;2023-08-31T12:46:12;17.30;99.90
20973;DHT22;10645;52.370;13.314;2023-08-31T12:48:39;17.30;99.90
20973;DHT22;10645;52.370;13.314;2023-08-31T12:51:05;17.20;99.90
20973;DHT22;10645;52.370;13.314;2023-08-31T12:53:32;17.10;99.90
20973;DHT22;10645;52.370;13.314;2023-08-31T12:55:58;17.20;99.90
20973;DHT22;10645;52.370;13.314;2023-08-31T12:58:24;17.50;99.90
20973;DHT22;10645;52.370;13.314;2023-08-31T13:00:50;17.80;99.90
20973;DHT22;10645;52.370;13.314;2023-08-31T13:03:19;18.10;99.90
20973;DHT22;10645;52.370;13.314;2023-08-31T13:05:45;18.40;99.90
20973;DHT22;10645;52.370;13.314;2023-08-31T13:08:11;18.60;99.90
20973;DHT22;10645;52.370;13.314;2023-08-31T13:10:37;18.60;99.90
20973;DHT22;10645;52.370;13.314;2023-08-31T13:13:04;18.80;99.90
20973;DHT22;10645;52.370;13.314;2023-08-31T13:15:31;18.70;99.90
20973;DHT22;10645;52.370;13.314;2023-08-31T13:17:58;18.70;99.90
20973;DHT22;10645;52.370;13.314;2023-08-31T13:20:24;18.60;99.90
20973;DHT22;10645;52.370;13.314;2023-08-31T13:22:50;18.70;99.90
20973;DHT22;10645;52.370;13.314;2023-08-31T13:25:17;18.80;99.90
20973;DHT22;10645;52.370;13.314;2023-08-31T13:27:43;18.70;99.90
20973;DHT22;10645;52.370;13.314;2023-08-31T13:30:10;18.60;99.90
20973;DHT22;10645;52.370;13.314;2023-08-31T13:32:38;18.50;99.90
20973;DHT22;10645;52.370;13.314;2023-08-31T13:35:05;18.30;99.90
20973;DHT22;10645;52.370;13.314;2023-08-31T13:37:34;18.10;99.90
20973;DHT22;10645;52.370;13.314;2023-08-31T13:40:00;18.00;99.90
20973;DHT22;10645;52.370;13.314;2023-08-31T13:42:34;17.80;99.90
20973;DHT22;10645;52.370;13.314;2023-08-31T13:45:08;17.60;99.90
20973;DHT22;10645;52.370;13.314;2023-08-31T13:47:34;17.40;99.90
20973;DHT22;10645;52.370;13.314;2023-08-31T13:50:00;17.10;99.90
20973;DHT22;10645;52.370;13.314;2023-08-31T13:52:26;17.00;99.90
20973;DHT22;10645;52.370;13.314;2023-08-31T13:54:52;16.80;99.90
20973;DHT22;10645;52.370;13.314;2023-08-31T13:57:18;16.70;99.90
20973;DHT22;10645;52.370;13.314;2023-08-31T13:59:45;16.70;99.90
20973;DHT22;10645;52.370;13.314;2023-08-31T14:02:11;16.60;99.90
20973;DHT22;10645;52.370;13.314;2023-08-31T14:04:37;16.60;99.90
20973;DHT22;10645;52.370;13.314;2023-08-31T14:07:03;16.70;99.90
20973;DHT22;10645;52.370;13.314;2023-08-31T14:09:29;16.70;99.90
20973;DHT22;10645;52.370;13.314;2023-08-31T14:11:56;16.60;99.90
20973;DHT22;10645;52.370;13.314;2023-08-31T14:14:23;16.70;99.90
20973;DHT22;10645;52.370;13.314;2023-08-31T14:16:49;16.70;99.90
20973;DHT22;10645;52.370;13.314;2023-08-31T14:19:16;16.60;99.90
20973;DHT22;10645;52.370;13.314;2023-08-31T14:21:42;16.70;99.90
20973;DHT22;10645;52.370;13.314;2023-08-31T14:24:08;16.80;99.90
20973;DHT22;10645;52.370;13.314;2023-08-31T14:26:34;17.10;99.90
20973;DHT22;10645;52.370;13.314;2023-08-31T14:29:00;17.50;99.90
20973;DHT22;10645;52.370;13.314;2023-08-31T14:31:27;17.50;99.90
20973;DHT22;10645;52.370;13.314;2023-08-31T14:33:53;17.50;99.90
20973;DHT22;10645;52.370;13.314;2023-08-31T14:36:21;17.40;99.90
20973;DHT22;10645;52.370;13.314;2023-08-31T14:38:47;17.50;99.90
20973;DHT22;10645;52.370;13.314;2023-08-31T14:41:13;17.50;99.90
20973;DHT22;10645;52.370;13.314;2023-08-31T14:43:39;17.60;99.90
20973;DHT22;10645;52.370;13.314;2023-08-31T14:46:05;17.60;99.90
20973;DHT22;10645;52.370;13.314;2023-08-31T14:48:32;17.70;99.90
20973;DHT22;10645;52.370;13.314;2023-08-31T14:50:58;17.70;99.90
20973;DHT22;10645;52.370;13.314;2023-08-31T14:53:26;17.80;99.90
20973;DHT22;10645;52.370;13.314;2023-08-31T14:55:53;17.80;99.90
20973;DHT22;10645;52.370;13.314;2023-08-31T14:58:19;17.90;99.90
20973;DHT22;10645;52.370;13.314;2023-08-31T15:00:45;17.70;99.90
20973;DHT22;10645;52.370;13.314;2023-08-31T15:03:11;17.70;99.90
20973;DHT22;10645;52.370;13.314;2023-08-31T15:05:38;17.60;99.90
20973;DHT22;10645;52.370;13.314;2023-08-31T15:08:07;17.60;99.90
20973;DHT22;10645;52.370;13.314;2023-08-31T15:10:34;17.70;99.90
20973;DHT22;10645;52.370;13.314;2023-08-31T15:13:00;17.70;99.90
20973;DHT22;10645;52.370;13.314;2023-08-31T15:15:26;17.80;99.90
20973;DHT22;10645;52.370;13.314;2023-08-31T15:17:52;17.80;99.90
20973;DHT22;10645;52.370;13.314;2023-08-31T15:20:18;17.90;99.90
20973;DHT22;10645;52.370;13.314;2023-08-31T15:22:44;18.10;99.90
20973;DHT22;10645;52.370;13.314;2023-08-31T15:25:10;18.10;99.90
20973;DHT22;10645;52.370;13.314;2023-08-31T15:27:36;18.00;99.90
20973;DHT22;10645;52.370;13.314;2023-08-31T15:30:06;17.80;99.90
20973;DHT22;10645;52.370;13.314;2023-08-31T15:32:35;17.80;99.90
20973;DHT22;10645;52.370;13.314;2023-08-31T15:35:02;17.80;99.90
20973;DHT22;10645;52.370;13.314;2023-08-31T15:37:28;17.90;99.90